MapTableWeb Map

Choose a state:
Most recent flow and stage for Tennessee
(Stations highlighted in red are currently above flood stage)
USGS
station
ID
USGS station name NWS
flood
stage
(ft)
Most recent
stage
(ft)
Most recent
flow
(cfs)
Historical
peaks
(cfs)
Most recent
local
date/time
NWS
station
ID
03312259 SALT LICK CREEK BELOW RED BOILING SPRINGS, TN   3.07 21 3,400 2017-02-22 07:45:00 SLLT1
03408500 NEW RIVER AT NEW RIVER, TN   3.31 304 74,700 2017-02-22 08:30:00 NRVT1
03409500 CLEAR FORK NEAR ROBBINS, TN   2.40 207 54,400 2017-02-22 08:30:00 CFKT1
03410210 SOUTH FK CUMBERLAND RIVER AT LEATHERWOOD FORD, TN   6.23 826 65,900 2017-02-22 08:30:00 LTWT1
03414500 EAST FORK OBEY RIVER NEAR JAMESTOWN, TN   1.97 189 44,800 2017-02-22 07:00:00 JAGT1
03415000 WEST FORK OBEY RIVER NEAR ALPINE, TN   2.01 77 15,100 2017-02-22 07:15:00 ALPT1
03416000 WOLF RIVER NEAR BYRDSTOWN, TN   2.23 92 23,500 2017-02-22 07:00:00 BYGT1
03417500 CUMBERLAND RIVER AT CELINA, TN 40 12.25

 

145,000 2017-02-22 07:30:00 CLAT1
03418420 CUMBERLAND RIVER BELOW CORDELL HULL DAM, TN   450.88

 

85,200 2017-02-22 07:30:00 CORT1
03419800 CALFKILLER RIVER AT HWY 111 BELOW SPARTA, TN   4.91 160 25,000 2017-02-22 08:00:00 CAFT1
03421000 COLLINS RIVER NEAR MCMINNVILLE, TN   3.43 790 75,300 2017-02-22 07:00:00 MCGT1
03423000 FALLING WATER RIVER NEAR COOKEVILLE, TN   4.50 57 5,630 2017-02-22 07:15:00  
03424730 SMITH FORK AT TEMPERANCE HALL, TN   2.53 130 31,600 2017-02-22 07:00:00 GVST1
03424860 CANEY FORK AT STONEWALL   11.47 5,330 22,800 2017-02-22 07:30:00 STWT1
03426387 MANSKER CREEK AT HWY 41 NEAR MILLERSVILLE, TN 9 1.91

 

920 2017-02-22 07:10:00  
03426470 DRY CREEK NEAR EDENWOLD, TN 12 4.82 0.90 1,760 2017-02-22 07:00:00 NSRT1
03426490 CUMBERLAND RIVER AT EDENWOLD, TN 49 18.85

 

2017-02-22 07:00:00 EDWT1
03427500 EAST FORK STONES RIVER NEAR LASCASSAS, TN   3.69 143 41,200 2017-02-22 07:00:00 LAST1
03428200 WEST FORK STONES RIVER AT MURFREESBORO, TN   2.78 138 31,000 2017-02-22 07:00:00 MUGT1
03430200 STONES RIVER AT US HWY 70 NEAR DONELSON, TN 35 7.38 3,370 14,200 2017-02-22 07:00:00  
03430250 CUMBERLAND RIVER AT STONES RIVER NEAR HERMITAGE,TN 48 20.41

 

2017-02-22 07:45:00  
03430320 CUMBERLAND RIVER AT BRILEY PKWY NR INGLEWOOD, TN 47 22.92

 

2017-02-22 07:45:00 PNBT1
03430550 MILL CREEK NEAR NOLENSVILLE, TN 13 3.96 804 28,500 2017-02-22 08:00:00  
03431000 MILL CREEK NEAR ANTIOCH, TN 14 2.85 37 30,100 2017-02-22 07:00:00 ANTT1
03431040 SEVENMILE CREEK AT BLACKMAN RD,NR NASHVILLE TN 9 1.96 275 10,500 2017-02-22 07:40:00  
03431060 MILL CREEK AT THOMPSON LANE, NEAR WOODBINE, TN 14 2.99 80 29,900 2017-02-22 07:00:00 WBNT1
03431091 CUMBERLAND R AT OMOHUNDRO WTR PLT AT NASHVILLE, TN 41 20.48

 

2017-02-22 07:00:00 OMOT1
03431100 W F BROWNS C AT GLENDALE LANE AT NASHVILLE, TN 9 3.53

 

450 2017-02-22 07:30:00  
03431300 BROWNS CREEK AT STATE FAIRGROUNDS AT NASHVILLE, TN 8 1.69 7.9 8,540 2017-02-22 08:00:00 NBCT1
03431500 CUMBERLAND RIVER AT NASHVILLE, TN 40 18.27 11,900 203,000 2017-02-22 07:30:00 NAST1
034315005 CUMBERLAND RIVER AT WOODLAND ST AT NASHVILLE, TN   17.69 7,180 188,000 2010-09-30 23:45:00 NSST1
03431514 CUMBERLAND RIVER NEAR BORDEAUX, TN 34 16.60

 

2017-02-22 07:45:00  
03431530 WHITES C AT OLD HICKORY BLVD AT WHITES CREEK, TN 14 3.04 314 2017-02-22 08:00:00  
03431599 WHITES CREEK NEAR BORDEAUX, TN 18 4.38 32 14,700 2017-02-22 07:30:00 BORT1
03431655 RICHLAND CREEK AT HARDING PLACE AT BELLE MEADE, TN 7 2.60

 

2017-02-22 07:45:00  
03431700 RICHLAND CREEK AT CHARLOTTE AVE, AT NASHVILLE, TN 15 0.87 14 16,900 2017-02-22 07:45:00 NRCT1
03431712 CUMBERLAND RIVER AT BRILEY PKWY AT COCKRILL BEND 35 15.61

 

2017-02-22 07:00:00 BPYT1
03431790 CUMBERLAND RIVER AT ASHLAND CITY, TN 28 17.87 14,200 79,400 2017-02-22 07:00:00  
03431800 SYCAMORE CREEK NEAR ASHLAND CITY, TN 14 2.96 57 18,500 2017-02-22 07:30:00  
0343233905 Harpeth River at Mile 90.4 near Franklin, TN   2.85 92   2017-02-22 07:15:00  
03432350 HARPETH RIVER AT FRANKLIN, TN 30 4.07 104 19,200 2017-02-22 07:15:00 FRAT1
03432400 HARPETH RIVER BELOW FRANKLIN, TN 27 3.07 115 20,900 2017-02-22 07:00:00 HBFT1
034324715 UNNAMED TRIB TO SYCAMORE CR (FLUME) NR SYCAMORE   0.96

 

17 2011-10-12 12:00:00  
03432504 ROBINSON BRANCH ABOVE BOSTON, TN   1.57 0.00 2012-10-11 08:45:00  
034325065 ROBINSON BRANCH AT BOSTON THETA ROAD, TN   1.44 0.58 161 2012-10-11 10:00:00  
03432516 LEIPERS FORK AT BOSTON, TN   1.85 0.61 2012-10-10 23:45:00  
03432522 SOUTH GARRISON BRANCH NEAR HOLTS CHAPEL, TN   1.96 0.37 1,090 2012-12-18 11:45:00  
03433500 HARPETH RIVER AT BELLEVUE, TN 20 2.02 275 46,500 2017-02-22 07:30:00 BELT1
03433637 SOUTH HARPETH CREEK NEAR PEWITT CHAPEL   5.31 3.0 371 2010-05-02 09:00:00  
034336392 SLICK ROCK HOLLOW CREEK NEAR PEWITT CHAPEL   1.66 0.25 749 2011-10-10 23:45:00  
03433640 COPPERAS BRANCH NEAR KINGFIELD, TN   2.43 0.67 2,460 2012-08-07 23:45:00  
03434500 HARPETH RIVER NEAR KINGSTON SPRINGS, TN 20 1.94 470 72,000 2017-02-22 07:00:00 KINT1
03436100 RED RIVER AT PORT ROYAL, TN 30 5.84 686 63,200 2017-02-22 07:30:00 PORT1
03436690 YELLOW CREEK AT ELLIS MILLS, TN   3.53 67 30,000 2017-02-19 15:00:00 EMGT1
03455000 FRENCH BROAD RIVER NEAR NEWPORT, TN 10 1.47 1,060 110,000 2017-02-22 08:45:00 NWPT1
03461500 PIGEON RIVER AT NEWPORT, TN 8 2.36 251 50,000 2017-02-22 08:00:00 NEPT1
03465500 NOLICHUCKY RIVER AT EMBREEVILLE, TN 12 1.45 622 120,000 2017-02-22 08:30:00  
03466208 BIG LIMESTONE CREEK NEAR LIMESTONE, TN   3.10 48 10,400 2017-02-22 09:00:00  
03466500 NOLICHUCKY RIVER BELOW NOLICHUCKY DAM, TN   41.90

 

73,500 2017-02-22 08:15:00  
03467609 NOLICHUCKY RIVER NEAR LOWLAND   7.42 1,110 48,000 2017-02-22 08:30:00 LLDT1
03469251 WEST FORK LITTLE PIGEON RIVER, TN   1.97

 

  2017-02-22 09:00:00  
03470000 LITTLE PIGEON RIVER AT SEVIERVILLE, TN 11 1.65

 

55,000 2017-02-22 08:30:00  
03485500 DOE RIVER AT ELIZABETHTON, TN   1.00 171 25,000 2017-02-22 08:15:00  
03486000 WATAUGA RIVER AT ELIZABETHTON, TENNESSEE   3.48

 

76,000 2017-02-22 08:00:00  
03491000 BIG CREEK NEAR ROGERSVILLE, TN 7 2.06 40 5,760 2017-02-22 08:30:00 RVLT1
03491544 CROCKETT CREEK BELOW ROGERSVILLE, TN   0.80 2.9 996 2017-02-22 08:15:00  
03495405 ROSEBERRY CREEK AT HWY11W NR MASCOT, TN   1.57

 

  2017-02-22 08:15:00  
03497300 LITTLE RIVER ABOVE TOWNSEND, TN   1.90 176 27,100 2017-02-22 09:00:00 TWNT1
03498500 LITTLE RIVER NEAR MARYVILLE, TN 18 6.05 297 50,000 2017-02-22 08:30:00  
03498850 LITTLE RIVER NEAR ALCOA, TN   2.52 319 28,000 2017-02-22 09:00:00 ALCT1
034991109 STOCK CREEK AT MARTIN MILL RD NR KNOXVILLE   0.99

 

667 2017-02-22 08:30:00 HIBT1
03518500 TELLICO RIVER AT TELLICO PLAINS, TN   0.98 104 21,500 2017-02-22 08:15:00 TLRT1
03527220 CLINCH RIVER NEAR LOONEYS GAP, TN   3.11 1,030 36,800 2017-02-22 08:15:00 LGPT1
03528000 CLINCH RIVER ABOVE TAZEWELL, TN 12 2.19 1,470 98,100 2017-02-22 08:30:00  
03532000 POWELL RIVER NEAR ARTHUR, TN 17 3.46 608 59,500 2017-02-22 08:15:00 ARTT1
03535000 BULLRUN CREEK NEAR HALLS CROSSROADS, TN   2.18 32 18,300 2017-02-22 08:30:00  
03535200 BEAVER C NR POWELL TENN   4.92 21 2,250 2017-02-22 08:30:00 BCPT1
03535400 BEAVER CREEK AT SOLWAY, TN   5.75 67 4,520 2017-02-22 08:00:00  
03538830 OBED RIVER AT ADAMS BRIDGE NEAR CROSSVILLE, TN   5.09 110 5,800 2017-02-22 07:45:00  
03538970 BASSES CREEK AT LAKE TANSI NR CROSSVILLE,TN   2.77

 

2017-02-22 07:00:00  
03539600 DADDYS CREEK NEAR HEBBERTSBURG, TN   2.48 179 15,100 2017-02-22 07:00:00 DADT1
03539778 CLEAR CREEK AT LILLY BRIDGE NEAR LANCING, TN   5.34 155 18,000 2017-02-22 08:45:00 CLCT1
03539800 OBED RIVER NEAR LANCING, TN   2.20 460 105,000 2017-02-22 08:00:00 OBDT1
03540500 EMORY RIVER AT OAKDALE, TN 27 4.42 672 195,000 2017-02-22 08:00:00 OAKT1
03543500 SEWEE CREEK NEAR DECATUR, TN 10 0.54

 

23,900 2017-02-22 08:00:00  
03559500 OCOEE RIVER AT COPPERHILL, TN   2.31

 

35,000 2017-02-22 08:30:00  
03565500 OOSTANAULA CREEK NEAR SANFORD, TN   2.77 65 8,000 2017-02-22 08:15:00 OOBT1
03566000 HIWASSEE RIVER AT CHARLESTON, TN   11.54 1,900 70,000 2017-02-22 08:30:00 CHLT1
03566525 NORTH CHICKAMAUGA CREEK NEAR MONTLAKE, TN   3.51 0.43 13,600 2010-09-30 23:45:00  
03566535 NORTH CHICKAMAUGA CR AT MILE STRAIGHT, TN   3.44

 

  2017-02-22 08:00:00  
03567500 SOUTH CHICKAMAUGA CREEK NEAR CHICKAMAUGA, TN 18 5.03 275 30,000 2017-02-22 08:15:00  
03571000 SEQUATCHIE RIVER NEAR WHITWELL, TN 14 3.17 580 35,400 2017-02-22 07:15:00  
03578000 ELK RIVER NEAR PELHAM, TN 14 3.29 103 15,800 2017-02-22 07:00:00 PELT1
03578500 BRADLEY CREEK NR PRAIRIE PLAINS, TENN.   2.38 42 5,660 2017-02-22 07:30:00 PPLT1
03582000 ELK RIVER ABOVE FAYETTEVILLE, TENN.   3.86 1,330 41,600 2017-02-22 07:15:00  
035825882 CANE CREEK NEAR HOWELL, TN   2.97 0.23 16,200 2008-09-30 23:45:00  
03584045 RICHLAND CREEK AT HWY 64 BYPASS AT PULASKI, TN 20 6.72 389 29,400 2017-02-22 07:00:00 PLKT1
03584600 ELK RIVER AT PROSPECT, TN 26 3.49 2,050 117,000 2017-02-22 07:15:00  
03585269 SUGAR CREEK AT HWY 11 NEAR MINOR HILL, TN   10.24 24 3,580 2008-09-30 23:45:00  
03588500 SHOAL CREEK AT IRON CITY, TN 14 3.20 352 132,000 2017-02-22 07:30:00 IRCT1
03593800 HORSE CREEK NEAR SAVANNAH, TENN (TVA) 13.8 0.96 87 37,000 2017-02-22 07:30:00  
03594421 BEECH RIVER BELOW WOLF CREEK NEAR LEXINGTON, TN   12.48 33 7,190 2017-02-22 07:30:00 BCHT1
03596000 DUCK RIVER BELOW MANCHESTER, TN   0.80 98 50,000 2017-02-22 07:00:00  
03596075 SINKING POND AT AEDC, TN   1.21

 

  2017-02-22 07:00:00 SNKT1
03597590 WARTRACE CREEK BELOW COUNTY ROAD AT WARTRACE, TN 14 2.49 17 10,900 2017-02-22 08:00:00 WRTT1
03597860 DUCK RIVER AT SHELBYVILLE, TN   10.57 303 2017-02-22 07:30:00  
03598000 DUCK RIVER NEAR SHELBYVILLE, TN 25 3.74 338 87,000 2017-02-22 07:30:00  
03598165 HURRICANE CREEK NEAR ELBETHEL, TN   1.98 0.00 2,010 2009-07-01 22:00:00  
0359816545 PARCH CORN CREEK AT MARTIN ROAD NR ELBETHEL, TN   1.50 0.00 294 2009-07-01 23:00:00  
03598169 BENFORD CREEK NEAR SHELBYVILLE, TN   1.38 0.00 764 2009-07-01 22:00:00  
03598173 FALL CREEK NEAR DEASON, TN   3.63 0.02 1,660 2009-07-01 22:00:00  
03598177 FALL CREEK BLW HURRICANE CREEK NR ELBETHEL, TN   1.03 0.02 3,230 2009-07-01 23:00:00  
03599100 BIG ROCK CR AT DOUBLE BRIDGES, TN   3.10 17 11,600 2017-02-22 07:15:00 DBLT1
03599240 DUCK RIVER ABOVE MILLTOWN, TN 36 11.97 627 39,400 2017-02-22 08:00:00 MLTT1
03599419 DUCK RIVER AT MILE 156 NEAR POTTSVILLE, TN   6.76 872 22,200 2017-02-22 07:00:00  
03599450 FOUNTAIN CREEK NEAR FOUNTAIN HEIGHTS, TN   2.21 48 20,000 2017-02-22 07:15:00 FNHT1
03599500 DUCK RIVER AT COLUMBIA, TN 32 4.10 1,020 61,500 2017-02-22 07:00:00  
03600358 DUCK RIVER AT CRAIG BRIDGE RD AB WILLIAMSPORT, TN   8.69 1,240 23,300 2017-02-22 07:30:00  
03601600 DUCK RIVER NEAR SHADY GROVE, TN.   9.56 1,470 26,700 2017-02-22 07:30:00  
03601990 DUCK RIVER AT HWY 100 AT CENTERVILLE, TN 22 5.22 1,850 104,000 2017-02-22 07:00:00 CNVT1
03602500 PINEY RIVER AT VERNON, TN 14 3.37 179 75,200 2017-02-22 07:15:00 VERT1
03603000 DUCK RIVER ABOVE HURRICANE MILLS, TN 24 3.26 2,400 171,000 2017-02-22 07:00:00  
03604000 BUFFALO RIVER NEAR FLAT WOODS, TN 22 3.18 459 96,300 2017-02-22 07:00:00 FLTT1
03604400 BUFFALO RIVER BELOW LOBELVILLE, TN 14 4.22 763 101,000 2017-02-22 07:30:00  
03605078 CYPRESS CREEK AT CAMDEN, TN   3.52 16 2017-02-22 07:45:00 CMTT1
03606500 BIG SANDY RIVER AT BRUCETON, TN   3.78 163 30,000 2017-02-22 08:00:00 BIGT1
07024200 CROOKED CREEK NEAR HUNTINGDON, TN   7.12 16 3,880 2017-02-22 07:00:00 CKCT1
07024500 SOUTH FORK OBION RIVER NEAR GREENFIELD, TN   6.77 359 25,600 2017-02-22 07:45:00 SFOT1
07025400 NORTH FORK OBION RIVER NEAR MARTIN, TENN (CE) 20 5.84 291 30,300 2017-02-22 07:00:00 NOMT1
07026040 OBION RIVER AT HWY 51 NEAR OBION, TN 34 20.24

 

99,500 2017-02-22 07:00:00 OBNT1
07027000 REELFOOT LAKE NR TIPTONVILLE, TN   12.48

 

2017-02-22 07:00:00 RFLT1
07027005 RUNNING REELFOOT BAYOU BELOW REELFOOT SPILLWAY   1.12

 

2017-02-22 07:30:00  
07027720 SOUTH FORK FORKED DEER RIVER NEAR OWL CITY, TN   10.25 558 38,000 2017-02-22 07:00:00 OWCT1
07028960 MIDDLE FORK FORKED DEER RIVER NEAR FAIRVIEW   4.86 150 15,900 2017-02-22 07:15:00 FRVT1
07029500 HATCHIE RIVER AT BOLIVAR, TN 18 8.31 790 61,600 2017-02-22 07:30:00 BVRT1
07030050 HATCHIE RIVER AT RIALTO, TN 20 7.48 1,780 55,800 2017-02-22 07:00:00 RLTT1
07030290 LOOSAHATCHIE RV AT SINGLETON PKWY NR BARTLETT, TN   1.99

 

  2017-02-22 07:45:00  
07030392 WOLF RIVER AT LAGRANGE, TN   6.46 154 12,800 2017-02-22 07:45:00 LGRT1
07030500 WOLF RIVER AT ROSSVILLE, TN 13 2.86 406 40,000 2017-02-22 07:00:00 ROST1
07030600 WOLF RIVER NEAR COLLIERVILLE 13 3.95

 

2017-02-22 07:45:00  
07031650 WOLF RIVER AT GERMANTOWN, TN 20.5 4.05 527 33,400 2017-02-22 07:45:00 GERT1
07031692 FLETCHER CREEK AT SYCAMORE VIEW ROAD AT MEMPHIS   2.04 4.0 12,500 2017-02-22 07:30:00 MPHT1
07031740 WOLF RIVER AT HOLLYWOOD ST AT MEMPHIS, TN 33 13.55

 

35,600 2017-02-22 07:00:00 HLYT1
07032000 MISSISSIPPI RIVER AT MEMPHIS, TN 34 10.29 502,000 1,980,000 2017-02-22 08:00:00  
07032200 NONCONNAH CREEK NEAR GERMANTOWN, TN 23 7.00 8.0 15,000 2017-02-22 07:45:00 NONT1
070322435 NONCONNAH CREEK AT FARRISVIEW RD AT MEMPHIS, TN 31 6.95

 

2017-02-22 07:45:00  
07032252 NONCONNAH CREEK AT RIVERPORT RD AT MEMPHIS, TN 46 16.63

 

2017-02-22 07:45:00